createdAt,value
2022-10-25T00:01:02.985Z,9.56
2022-10-25T00:03:31.124Z,9.59
2022-10-25T00:05:59.332Z,9.61
2022-10-25T00:08:27.411Z,9.61
2022-10-25T00:10:55.471Z,9.65
2022-10-25T00:13:23.645Z,9.64
2022-10-25T00:15:51.715Z,9.62
2022-10-25T00:18:21.239Z,9.59
2022-10-25T00:20:49.394Z,9.54
2022-10-25T00:23:18.304Z,9.47
2022-10-25T00:25:46.401Z,9.49
2022-10-25T00:28:14.551Z,9.38
2022-10-25T00:30:42.641Z,9.36
2022-10-25T00:33:10.711Z,9.31
2022-10-25T00:35:40.222Z,9.28
2022-10-25T00:38:08.311Z,9.23
2022-10-25T00:40:36.431Z,9.35
2022-10-25T00:43:04.563Z,9.37
2022-10-25T00:45:32.713Z,9.38
2022-10-25T00:48:02.943Z,9.37
2022-10-25T00:50:37.402Z,9.34
2022-10-25T00:53:10.601Z,9.34
2022-10-25T00:55:39.993Z,9.27
2022-10-25T00:58:10.621Z,9.24
2022-10-25T01:00:38.801Z,9.19
2022-10-25T01:03:07.503Z,9.08
2022-10-25T01:05:35.861Z,8.96
2022-10-25T01:08:04.229Z,9.01
2022-10-25T01:10:34.300Z,8.90
2022-10-25T01:13:02.841Z,8.82
2022-10-25T01:15:35.442Z,8.82
2022-10-25T01:18:12.279Z,8.79
2022-10-25T01:20:52.741Z,8.68
2022-10-25T01:23:42.831Z,8.66
2022-10-25T01:26:35.201Z,8.58
2022-10-25T01:29:22.841Z,8.52
2022-10-25T01:31:55.542Z,8.51
2022-10-25T01:34:28.120Z,8.48
2022-10-25T01:37:03.221Z,8.53
2022-10-25T01:39:34.547Z,8.47
2022-10-25T01:42:06.290Z,8.38
2022-10-25T01:44:41.212Z,8.47
2022-10-25T01:47:14.811Z,8.44
2022-10-25T01:49:45.960Z,8.45
2022-10-25T01:52:51.554Z,8.38
2022-10-25T01:55:20.932Z,8.40
2022-10-25T01:58:00.016Z,8.32
2022-10-25T02:00:28.778Z,8.19
2022-10-25T02:03:11.383Z,8.11
2022-10-25T02:05:50.064Z,8.07
2022-10-25T02:08:25.923Z,8.05
2022-10-25T02:11:00.897Z,8.04
2022-10-25T02:13:32.063Z,8.10
2022-10-25T02:16:02.443Z,8.16
2022-10-25T02:18:35.111Z,8.11
2022-10-25T02:21:04.477Z,8.09
2022-10-25T02:23:34.525Z,8.03
2022-10-25T02:26:03.107Z,7.89
2022-10-25T02:28:31.765Z,7.88
2022-10-25T02:31:00.307Z,7.83
2022-10-25T02:33:28.492Z,7.80
2022-10-25T02:36:14.795Z,7.75
2022-10-25T02:38:44.079Z,7.75
2022-10-25T02:41:12.328Z,7.86
2022-10-25T02:43:40.457Z,7.87
2022-10-25T02:46:09.930Z,7.87
2022-10-25T02:48:38.638Z,7.86
2022-10-25T02:51:07.247Z,7.85
2022-10-25T02:53:37.369Z,7.88
2022-10-25T02:56:07.551Z,7.90
2022-10-25T02:58:38.089Z,7.88
2022-10-25T03:01:07.086Z,7.86
2022-10-25T03:03:35.867Z,7.82
2022-10-25T03:06:04.489Z,7.79
2022-10-25T03:08:32.974Z,7.77
2022-10-25T03:11:02.576Z,7.68
2022-10-25T03:13:30.709Z,7.52
2022-10-25T03:15:58.930Z,7.51
2022-10-25T03:18:27.137Z,7.48
2022-10-25T03:20:58.075Z,7.44
2022-10-25T03:23:26.367Z,7.41
2022-10-25T03:25:54.647Z,7.35
2022-10-25T03:28:24.405Z,7.33
2022-10-25T03:30:52.708Z,7.27
2022-10-25T03:33:21.261Z,7.18
2022-10-25T03:35:52.007Z,7.10
2022-10-25T03:38:20.378Z,7.09
2022-10-25T03:40:48.466Z,7.04
2022-10-25T03:43:16.638Z,7.08
2022-10-25T03:45:46.287Z,7.24
2022-10-25T03:48:15.917Z,7.33
2022-10-25T03:50:44.340Z,7.27
2022-10-25T03:53:12.795Z,7.37
2022-10-25T03:55:41.170Z,7.36
2022-10-25T03:58:09.348Z,7.45
2022-10-25T04:00:37.551Z,7.45
2022-10-25T04:05:40.128Z,7.41
2022-10-25T04:08:08.348Z,7.44
2022-10-25T04:10:36.698Z,7.38
2022-10-25T04:13:04.788Z,7.38
2022-10-25T04:15:33.215Z,7.41
2022-10-25T04:18:01.330Z,7.35
2022-10-25T04:20:30.873Z,7.30
2022-10-25T04:22:59.449Z,7.36
2022-10-25T04:25:28.998Z,7.34
2022-10-25T04:27:57.367Z,7.42
2022-10-25T04:30:25.552Z,7.40
2022-10-25T04:32:53.617Z,7.38
2022-10-25T04:35:21.841Z,7.41
2022-10-25T04:37:52.100Z,7.37
2022-10-25T04:40:22.656Z,7.35
2022-10-25T04:42:52.190Z,7.28
2022-10-25T04:45:20.350Z,7.29
2022-10-25T04:47:48.747Z,7.24
2022-10-25T04:50:17.517Z,7.21
2022-10-25T04:52:45.924Z,7.23
2022-10-25T04:55:16.309Z,7.23
2022-10-25T04:57:44.525Z,7.23
2022-10-25T05:00:13.860Z,7.21
2022-10-25T05:02:42.167Z,7.26
2022-10-25T05:05:11.041Z,7.25
2022-10-25T05:07:39.428Z,7.24
2022-10-25T05:10:08.066Z,7.28
2022-10-25T05:12:37.734Z,7.29
2022-10-25T05:15:07.056Z,7.32
2022-10-25T05:17:35.341Z,7.38
2022-10-25T05:20:05.071Z,7.33
2022-10-25T05:22:33.290Z,7.31
2022-10-25T05:25:01.448Z,7.33
2022-10-25T05:27:29.777Z,7.28
2022-10-25T05:29:59.417Z,7.23
2022-10-25T05:32:27.741Z,7.34
2022-10-25T05:34:55.958Z,7.36
2022-10-25T05:37:24.218Z,7.38
2022-10-25T05:39:52.497Z,7.31
2022-10-25T05:42:20.800Z,7.35
2022-10-25T05:44:49.020Z,7.31
2022-10-25T05:47:18.689Z,7.32
2022-10-25T05:49:46.909Z,7.34
2022-10-25T05:52:15.708Z,7.33
2022-10-25T05:54:43.921Z,7.34
2022-10-25T05:57:12.326Z,7.37
2022-10-25T05:59:40.548Z,7.37
2022-10-25T06:02:11.213Z,7.46
2022-10-25T06:04:40.915Z,7.45
2022-10-25T06:07:09.196Z,7.58
2022-10-25T06:09:37.377Z,7.58
2022-10-25T06:12:08.865Z,7.58
2022-10-25T06:14:37.908Z,7.61
2022-10-25T06:17:06.820Z,7.61
2022-10-25T06:19:35.012Z,7.60
2022-10-25T06:22:05.318Z,7.64
2022-10-25T06:24:33.525Z,7.65
2022-10-25T06:27:01.811Z,7.69
2022-10-25T06:29:30.021Z,7.79
2022-10-25T06:31:58.267Z,7.82
2022-10-25T06:34:26.481Z,7.90
2022-10-25T06:36:54.738Z,7.99
2022-10-25T06:39:24.390Z,8.06
2022-10-25T06:41:52.692Z,8.16
2022-10-25T06:44:20.901Z,8.19
2022-10-25T06:49:37.388Z,8.24
2022-10-25T06:52:05.719Z,8.25
2022-10-25T06:54:35.987Z,8.31
2022-10-25T06:57:04.357Z,8.38
2022-10-25T06:59:32.660Z,8.53
2022-10-25T07:02:01.012Z,8.64
2022-10-25T07:04:32.662Z,8.68
2022-10-25T07:07:01.038Z,8.66
2022-10-25T07:09:29.642Z,8.73
2022-10-25T07:11:59.270Z,8.77
2022-10-25T07:14:27.646Z,8.88
2022-10-25T07:16:55.871Z,8.98
2022-10-25T07:19:25.080Z,9.12
2022-10-25T07:21:53.490Z,9.19
2022-10-25T07:24:21.759Z,9.32
2022-10-25T07:26:49.988Z,9.51
2022-10-25T07:29:19.717Z,9.45
2022-10-25T07:31:47.957Z,9.56
2022-10-25T07:34:16.748Z,9.60
2022-10-25T07:36:45.748Z,9.74
2022-10-25T07:39:14.259Z,10.03
2022-10-25T07:41:42.551Z,10.28
2022-10-25T07:44:15.961Z,10.42
2022-10-25T07:46:46.429Z,10.42
2022-10-25T07:49:14.853Z,10.81
2022-10-25T07:51:43.333Z,10.87
2022-10-25T07:54:11.599Z,11.28
2022-10-25T07:56:39.788Z,11.10
2022-10-25T07:59:08.091Z,10.97
2022-10-25T08:01:36.872Z,10.77
2022-10-25T08:04:06.822Z,10.84
2022-10-25T08:06:36.501Z,10.66
2022-10-25T08:09:14.425Z,10.85
2022-10-25T08:11:48.680Z,10.92
2022-10-25T08:14:17.155Z,10.87
2022-10-25T08:16:45.487Z,11.00
2022-10-25T08:19:15.169Z,10.99
2022-10-25T08:21:44.005Z,11.13
2022-10-25T08:24:12.433Z,11.24
2022-10-25T08:26:41.309Z,11.21
2022-10-25T08:29:09.589Z,11.39
2022-10-25T08:31:37.917Z,11.54
2022-10-25T08:34:06.641Z,13.54
2022-10-25T08:36:36.399Z,14.71
2022-10-25T08:39:04.617Z,15.64
2022-10-25T08:41:41.008Z,16.08
2022-10-25T08:44:19.901Z,16.43
2022-10-25T08:46:55.098Z,16.09
2022-10-25T08:49:26.910Z,14.68
2022-10-25T08:51:57.467Z,13.91
2022-10-25T08:54:30.578Z,13.93
2022-10-25T08:57:16.300Z,13.57
2022-10-25T08:59:48.448Z,13.35
2022-10-25T09:02:24.502Z,13.21
2022-10-25T09:04:52.886Z,13.31
2022-10-25T09:07:46.409Z,13.51
2022-10-25T09:10:23.493Z,13.54
2022-10-25T09:12:58.870Z,13.43
2022-10-25T09:15:42.132Z,13.49
2022-10-25T09:18:17.608Z,13.71
2022-10-25T09:20:50.167Z,13.71
2022-10-25T09:23:26.167Z,13.71
2022-10-25T09:26:00.568Z,13.91
2022-10-25T09:28:35.231Z,13.73
2022-10-25T09:31:05.208Z,13.76
2022-10-25T09:33:34.688Z,13.96
2022-10-25T09:36:05.677Z,14.04
2022-10-25T09:38:40.331Z,14.24
2022-10-25T09:41:14.728Z,14.18
2022-10-25T09:43:47.678Z,14.11
2022-10-25T09:46:19.362Z,14.04
2022-10-25T09:48:54.011Z,14.21
2022-10-25T09:51:26.338Z,14.24
2022-10-25T09:53:56.838Z,13.99
2022-10-25T09:56:25.097Z,14.01
2022-10-25T09:58:53.380Z,14.00
2022-10-25T10:01:26.497Z,13.98
2022-10-25T10:03:56.917Z,14.08
2022-10-25T10:06:29.808Z,13.95
2022-10-25T10:09:03.071Z,14.25
2022-10-25T10:11:32.165Z,14.40
2022-10-25T10:14:06.143Z,14.67
2022-10-25T10:16:42.867Z,14.50
2022-10-25T10:19:16.189Z,14.82
2022-10-25T10:21:44.997Z,14.93
2022-10-25T10:24:19.118Z,15.05
2022-10-25T10:26:49.487Z,15.04
2022-10-25T10:29:21.247Z,14.58
2022-10-25T10:31:52.242Z,14.71
2022-10-25T10:34:28.873Z,14.69
2022-10-25T10:37:05.566Z,14.69
2022-10-25T10:39:35.618Z,15.03
2022-10-25T10:42:16.017Z,15.07
2022-10-25T10:45:02.329Z,15.42
2022-10-25T10:47:34.427Z,15.54
2022-10-25T10:50:03.053Z,16.15
2022-10-25T10:52:33.708Z,17.14
2022-10-25T10:55:03.707Z,17.28
2022-10-25T10:57:34.179Z,17.35
2022-10-25T11:00:02.799Z,17.13
2022-10-25T11:02:39.488Z,17.24
2022-10-25T11:05:21.128Z,16.64
2022-10-25T11:07:56.466Z,16.56
2022-10-25T11:10:33.585Z,16.82
2022-10-25T11:13:10.077Z,16.69
2022-10-25T11:16:15.937Z,16.41
2022-10-25T11:18:51.750Z,16.26
2022-10-25T11:21:34.697Z,15.93
2022-10-25T11:24:10.176Z,15.77
2022-10-25T11:26:50.050Z,16.03
2022-10-25T11:29:25.081Z,16.18
2022-10-25T11:31:59.617Z,16.10
2022-10-25T11:34:34.491Z,16.24
2022-10-25T11:37:09.978Z,16.18
2022-10-25T11:39:52.388Z,16.37
2022-10-25T11:42:44.493Z,16.31
2022-10-25T11:45:34.532Z,16.29
2022-10-25T11:48:24.278Z,16.34
2022-10-25T11:51:00.759Z,16.20
2022-10-25T11:53:49.827Z,16.11
2022-10-25T11:56:24.938Z,16.18
2022-10-25T11:59:03.078Z,16.35
2022-10-25T12:01:41.358Z,16.54
2022-10-25T12:04:26.889Z,16.56
2022-10-25T12:07:04.318Z,16.09
2022-10-25T12:09:39.141Z,15.85
2022-10-25T12:12:11.378Z,16.03
2022-10-25T12:14:43.490Z,16.03
2022-10-25T12:17:21.127Z,16.06
2022-10-25T12:19:51.640Z,16.11
2022-10-25T12:22:22.669Z,16.20
2022-10-25T12:24:53.326Z,16.26
2022-10-25T12:27:23.195Z,16.42
2022-10-25T12:29:55.808Z,16.44
2022-10-25T12:32:28.757Z,16.42
2022-10-25T12:34:59.250Z,16.36
2022-10-25T12:37:32.055Z,16.45
2022-10-25T12:40:00.301Z,16.61
2022-10-25T12:42:31.529Z,17.26
2022-10-25T12:45:13.258Z,18.84
2022-10-25T12:47:48.260Z,20.68
2022-10-25T12:50:47.458Z,22.15
2022-10-25T12:53:53.860Z,23.02
2022-10-25T12:56:32.095Z,24.00
2022-10-25T12:59:07.578Z,24.66
2022-10-25T13:01:50.701Z,24.43
2022-10-25T13:04:58.376Z,24.66
2022-10-25T13:07:26.795Z,25.01
2022-10-25T13:09:55.468Z,25.12
2022-10-25T13:12:26.480Z,24.91
2022-10-25T13:14:56.163Z,24.45
2022-10-25T13:17:56.481Z,24.00
2022-10-25T13:20:46.954Z,24.18
2022-10-25T13:24:03.096Z,25.31
2022-10-25T13:27:15.191Z,25.15
2022-10-25T13:29:48.897Z,24.83
2022-10-25T13:32:20.109Z,25.89
2022-10-25T13:34:50.097Z,25.89
2022-10-25T13:37:41.159Z,25.49
2022-10-25T13:40:20.949Z,25.81
2022-10-25T13:42:50.833Z,25.65
2022-10-25T13:45:24.259Z,26.22
2022-10-25T13:47:54.140Z,26.00
2022-10-25T13:50:28.746Z,25.18
2022-10-25T13:53:02.966Z,25.10
2022-10-25T13:55:35.137Z,25.57
2022-10-25T13:58:03.536Z,24.65
2022-10-25T14:00:41.654Z,24.42
2022-10-25T14:03:36.747Z,23.77
2022-10-25T14:06:27.753Z,22.76
2022-10-25T14:09:10.044Z,21.92
2022-10-25T14:11:41.540Z,20.91
2022-10-25T14:14:24.518Z,19.77
2022-10-25T14:17:13.288Z,19.19
2022-10-25T14:19:43.797Z,18.54
2022-10-25T14:22:16.482Z,18.35
2022-10-25T14:24:45.467Z,18.13
2022-10-25T14:27:30.421Z,18.11
2022-10-25T14:30:24.798Z,18.09
2022-10-25T14:32:54.440Z,17.92
2022-10-25T14:35:23.450Z,17.89
2022-10-25T14:37:53.217Z,17.54
2022-10-25T14:40:23.212Z,17.38
2022-10-25T14:42:51.596Z,17.40
2022-10-25T14:45:23.477Z,17.12
2022-10-25T14:47:51.938Z,17.10
2022-10-25T14:50:23.505Z,17.03
2022-10-25T14:52:56.783Z,16.87
2022-10-25T14:55:31.060Z,16.61
2022-10-25T14:58:00.300Z,16.30
2022-10-25T15:00:28.724Z,16.13
2022-10-25T15:02:58.698Z,16.05
2022-10-25T15:05:27.757Z,15.84
2022-10-25T15:07:58.355Z,15.81
2022-10-25T15:10:47.557Z,15.53
2022-10-25T15:13:17.828Z,15.38
2022-10-25T15:15:47.598Z,15.32
2022-10-25T15:18:31.808Z,15.03
2022-10-25T15:21:14.077Z,14.99
2022-10-25T15:23:44.820Z,14.90
2022-10-25T15:26:24.241Z,14.66
2022-10-25T15:28:54.560Z,14.44
2022-10-25T15:31:24.873Z,14.43
2022-10-25T15:34:00.330Z,14.26
2022-10-25T15:36:29.822Z,14.17
2022-10-25T15:39:11.694Z,14.13
2022-10-25T15:41:42.467Z,14.03
2022-10-25T15:44:10.519Z,13.85
2022-10-25T15:46:38.668Z,13.65
2022-10-25T15:49:08.634Z,13.48
2022-10-25T15:51:39.974Z,13.33
2022-10-25T15:54:15.028Z,13.11
2022-10-25T15:56:43.107Z,12.91
2022-10-25T15:59:11.418Z,12.69
2022-10-25T16:01:41.926Z,12.52
2022-10-25T16:04:14.717Z,12.31
2022-10-25T16:06:42.948Z,12.08
2022-10-25T16:09:12.771Z,11.95
2022-10-25T16:11:46.295Z,11.85
2022-10-25T16:14:20.347Z,11.74
2022-10-25T16:16:48.436Z,11.58
2022-10-25T16:19:17.711Z,11.39
2022-10-25T16:21:46.138Z,11.24
2022-10-25T16:24:16.007Z,11.14
2022-10-25T16:26:45.322Z,11.00
2022-10-25T16:29:17.418Z,10.90
2022-10-25T16:31:45.748Z,10.73
2022-10-25T16:34:15.725Z,10.65
2022-10-25T16:36:43.935Z,10.57
2022-10-25T16:39:12.693Z,10.47
2022-10-25T16:41:43.697Z,10.39
2022-10-25T16:44:13.287Z,10.35
2022-10-25T16:46:41.478Z,10.22
2022-10-25T16:49:10.419Z,10.12
2022-10-25T16:51:39.219Z,10.11
2022-10-25T16:54:09.565Z,10.02
2022-10-25T16:56:38.546Z,9.93
2022-10-25T16:59:09.596Z,9.84
2022-10-25T17:01:43.717Z,9.73
2022-10-25T17:04:13.636Z,9.81
2022-10-25T17:06:44.301Z,9.66
2022-10-25T17:09:12.640Z,9.60
2022-10-25T17:11:41.066Z,9.61
2022-10-25T17:14:11.570Z,9.56
2022-10-25T17:16:40.928Z,9.53
2022-10-25T17:19:10.477Z,9.47
2022-10-25T17:21:38.607Z,9.38
2022-10-25T17:24:09.843Z,9.26
2022-10-25T17:26:38.378Z,9.22
2022-10-25T17:29:06.712Z,9.18
2022-10-25T17:31:36.699Z,9.12
2022-10-25T17:34:05.467Z,9.15
2022-10-25T17:36:33.627Z,9.17
2022-10-25T17:39:02.220Z,9.07
2022-10-25T17:41:30.300Z,9.04
2022-10-25T17:43:58.537Z,8.96
2022-10-25T17:46:29.297Z,8.92
2022-10-25T17:49:03.364Z,8.82
2022-10-25T17:51:32.126Z,8.76
2022-10-25T17:54:00.338Z,8.69
2022-10-25T17:56:29.217Z,8.66
2022-10-25T17:59:02.110Z,8.67
2022-10-25T18:01:32.916Z,8.63
2022-10-25T18:04:02.456Z,8.60
2022-10-25T18:06:31.070Z,8.62
2022-10-25T18:09:00.158Z,8.65
2022-10-25T18:11:29.297Z,8.61
2022-10-25T18:13:58.667Z,8.62
2022-10-25T18:16:27.517Z,8.66
2022-10-25T18:18:57.167Z,8.49
2022-10-25T18:21:27.139Z,8.45
2022-10-25T18:23:56.108Z,8.47
2022-10-25T18:26:25.297Z,8.37
2022-10-25T18:28:53.535Z,8.25
2022-10-25T18:31:22.787Z,8.15
2022-10-25T18:33:50.948Z,8.10
2022-10-25T18:36:21.977Z,8.20
2022-10-25T18:38:51.711Z,8.18
2022-10-25T18:41:22.079Z,8.13
2022-10-25T18:43:51.457Z,8.12
2022-10-25T18:46:19.847Z,8.13
2022-10-25T18:48:51.667Z,8.03
2022-10-25T18:51:21.148Z,7.94
2022-10-25T18:53:49.730Z,7.93
2022-10-25T18:56:21.288Z,7.88
2022-10-25T18:58:50.611Z,7.84
2022-10-25T19:01:20.646Z,7.82
2022-10-25T19:03:49.080Z,7.81
2022-10-25T19:06:17.449Z,7.74
2022-10-25T19:08:45.946Z,7.69
2022-10-25T19:11:16.438Z,7.71
2022-10-25T19:13:48.969Z,7.68
2022-10-25T19:16:19.617Z,7.67
2022-10-25T19:18:47.792Z,7.59
2022-10-25T19:21:18.622Z,7.54
2022-10-25T19:23:47.281Z,7.51
2022-10-25T19:26:17.865Z,7.63
2022-10-25T19:28:47.899Z,7.65
2022-10-25T19:31:17.877Z,7.66
2022-10-25T19:33:46.867Z,7.68
2022-10-25T19:36:15.374Z,7.67
2022-10-25T19:38:45.348Z,7.59
2022-10-25T19:41:16.196Z,7.51
2022-10-25T19:43:44.612Z,7.45
2022-10-25T19:46:14.600Z,7.51
2022-10-25T19:48:43.372Z,7.56
2022-10-25T19:51:13.128Z,7.52
2022-10-25T19:53:41.480Z,7.43
2022-10-25T19:56:10.998Z,7.37
2022-10-25T19:58:39.362Z,7.34
2022-10-25T20:01:09.559Z,7.30
2022-10-25T20:03:40.081Z,7.29
2022-10-25T20:06:10.026Z,7.33
2022-10-25T20:08:39.520Z,7.31
2022-10-25T20:11:08.448Z,7.32
2022-10-25T20:13:36.848Z,7.31
2022-10-25T20:16:06.148Z,7.30
2022-10-25T20:18:35.728Z,7.20
2022-10-25T20:21:07.865Z,7.09
2022-10-25T20:23:36.475Z,7.03
2022-10-25T20:26:13.096Z,7.03
2022-10-25T20:28:41.318Z,6.98
2022-10-25T20:31:09.579Z,6.94
2022-10-25T20:33:37.958Z,6.86
2022-10-25T20:36:09.742Z,6.95
2022-10-25T20:38:38.912Z,6.89
2022-10-25T20:41:08.468Z,6.86
2022-10-25T20:43:36.817Z,6.80
2022-10-25T20:46:06.048Z,6.73
2022-10-25T20:48:34.677Z,6.76
2022-10-25T20:51:06.761Z,6.73
2022-10-25T20:53:38.650Z,6.74
2022-10-25T20:56:07.695Z,6.71
2022-10-25T20:58:36.258Z,6.72
2022-10-25T21:01:04.681Z,6.69
2022-10-25T21:03:33.297Z,6.66
2022-10-25T21:06:03.550Z,6.65
2022-10-25T21:08:32.165Z,6.65
2022-10-25T21:11:03.057Z,6.58
2022-10-25T21:13:32.819Z,6.58
2022-10-25T21:16:03.426Z,6.56
2022-10-25T21:18:31.617Z,6.58
2022-10-25T21:21:02.544Z,6.57
2022-10-25T21:23:31.277Z,6.50
2022-10-25T21:26:01.219Z,6.49
2022-10-25T21:28:33.497Z,6.46
2022-10-25T21:31:02.898Z,6.37
2022-10-25T21:33:31.319Z,6.35
2022-10-25T21:36:04.071Z,6.31
2022-10-25T21:38:32.320Z,6.35
2022-10-25T21:41:09.797Z,6.38
2022-10-25T21:43:38.424Z,6.35
2022-10-25T21:46:07.678Z,6.41
2022-10-25T21:48:36.438Z,6.41
2022-10-25T21:51:05.207Z,6.42
2022-10-25T21:53:33.588Z,6.39
2022-10-25T21:56:11.790Z,6.44
2022-10-25T21:58:40.476Z,6.41
2022-10-25T22:01:09.546Z,6.60
2022-10-25T22:03:37.969Z,6.70
2022-10-25T22:06:07.858Z,6.70
2022-10-25T22:08:36.168Z,6.63
2022-10-25T22:11:06.261Z,6.58
2022-10-25T22:13:36.142Z,6.60
2022-10-25T22:16:06.378Z,6.60
2022-10-25T22:18:34.921Z,6.57
2022-10-25T22:21:05.190Z,6.49
2022-10-25T22:23:34.048Z,6.40
2022-10-25T22:26:03.758Z,6.40
2022-10-25T22:28:34.239Z,6.39
2022-10-25T22:31:08.966Z,6.41
2022-10-25T22:33:37.471Z,6.41
2022-10-25T22:36:07.033Z,6.36
2022-10-25T22:38:35.688Z,6.41
2022-10-25T22:41:05.607Z,6.37
2022-10-25T22:43:35.811Z,6.46
2022-10-25T22:46:06.397Z,6.48
2022-10-25T22:48:35.711Z,6.51
2022-10-25T22:51:04.123Z,6.48
2022-10-25T22:53:32.862Z,6.41
2022-10-25T22:56:02.491Z,6.45
2022-10-25T22:58:32.816Z,6.55
2022-10-25T23:03:34.770Z,6.51
2022-10-25T23:06:03.996Z,6.54
2022-10-25T23:08:32.818Z,6.57
2022-10-25T23:11:02.125Z,6.59
2022-10-25T23:13:30.611Z,6.62
2022-10-25T23:15:58.887Z,6.64
2022-10-25T23:18:27.500Z,6.68
2022-10-25T23:20:58.260Z,6.69
2022-10-25T23:23:27.547Z,6.68
2022-10-25T23:25:56.082Z,6.66
2022-10-25T23:28:24.430Z,6.72
2022-10-25T23:30:52.721Z,6.62
2022-10-25T23:33:21.055Z,6.62
2022-10-25T23:35:49.257Z,6.55
2022-10-25T23:38:18.935Z,6.58
2022-10-25T23:40:48.172Z,6.50
2022-10-25T23:43:16.608Z,6.48
2022-10-25T23:45:44.757Z,6.53
2022-10-25T23:48:13.058Z,6.49
2022-10-25T23:50:41.267Z,6.53
2022-10-25T23:53:09.791Z,6.42
2022-10-25T23:55:40.030Z,6.42
2022-10-25T23:58:08.311Z,6.45
